sensor_id;sensor_type;location;lat;lon;timestamp;temperature;humidity
67817;DHT22;54614;47.576;7.524;2024-02-16T00:00:07;22.30;61.10
67817;DHT22;54614;47.576;7.524;2024-02-16T00:02:37;22.30;61.20
67817;DHT22;54614;47.576;7.524;2024-02-16T00:05:04;22.30;61.10
67817;DHT22;54614;47.576;7.524;2024-02-16T00:07:36;22.30;61.10
67817;DHT22;54614;47.576;7.524;2024-02-16T00:10:03;22.30;61.10
67817;DHT22;54614;47.576;7.524;2024-02-16T00:12:33;22.30;61.10
67817;DHT22;54614;47.576;7.524;2024-02-16T00:15:00;22.30;61.10
67817;DHT22;54614;47.576;7.524;2024-02-16T00:17:27;22.30;61.20
67817;DHT22;54614;47.576;7.524;2024-02-16T00:19:53;22.30;61.10
67817;DHT22;54614;47.576;7.524;2024-02-16T00:22:23;22.30;61.10
67817;DHT22;54614;47.576;7.524;2024-02-16T00:24:49;22.30;61.10
67817;DHT22;54614;47.576;7.524;2024-02-16T00:27:15;22.30;61.10
67817;DHT22;54614;47.576;7.524;2024-02-16T00:29:42;22.30;61.10
67817;DHT22;54614;47.576;7.524;2024-02-16T00:32:08;22.30;61.10
67817;DHT22;54614;47.576;7.524;2024-02-16T00:34:36;22.30;61.10
67817;DHT22;54614;47.576;7.524;2024-02-16T00:37:03;22.30;61.10
67817;DHT22;54614;47.576;7.524;2024-02-16T00:39:37;22.30;61.10
67817;DHT22;54614;47.576;7.524;2024-02-16T00:42:07;22.30;61.10
67817;DHT22;54614;47.576;7.524;2024-02-16T00:44:33;22.20;61.10
67817;DHT22;54614;47.576;7.524;2024-02-16T00:46:59;22.30;61.20
67817;DHT22;54614;47.576;7.524;2024-02-16T00:49:24;22.20;61.10
67817;DHT22;54614;47.576;7.524;2024-02-16T00:51:50;22.20;61.10
67817;DHT22;54614;47.576;7.524;2024-02-16T00:54:17;22.20;61.10
67817;DHT22;54614;47.576;7.524;2024-02-16T00:56:43;22.20;61.10
67817;DHT22;54614;47.576;7.524;2024-02-16T00:59:08;22.30;61.10
67817;DHT22;54614;47.576;7.524;2024-02-16T01:01:35;22.20;61.20
67817;DHT22;54614;47.576;7.524;2024-02-16T01:04:02;22.20;61.10
67817;DHT22;54614;47.576;7.524;2024-02-16T01:06:28;22.20;61.10
67817;DHT22;54614;47.576;7.524;2024-02-16T01:08:54;22.30;61.20
67817;DHT22;54614;47.576;7.524;2024-02-16T01:11:19;22.20;61.10
67817;DHT22;54614;47.576;7.524;2024-02-16T01:13:46;22.20;61.20
67817;DHT22;54614;47.576;7.524;2024-02-16T01:16:12;22.20;61.10
67817;DHT22;54614;47.576;7.524;2024-02-16T01:18:37;22.20;61.20
67817;DHT22;54614;47.576;7.524;2024-02-16T01:21:03;22.20;61.20
67817;DHT22;54614;47.576;7.524;2024-02-16T01:23:30;22.20;61.20
67817;DHT22;54614;47.576;7.524;2024-02-16T01:25:55;22.20;61.10
67817;DHT22;54614;47.576;7.524;2024-02-16T01:28:21;22.20;61.10
67817;DHT22;54614;47.576;7.524;2024-02-16T01:30:48;22.20;61.10
67817;DHT22;54614;47.576;7.524;2024-02-16T01:33:14;22.20;61.10
67817;DHT22;54614;47.576;7.524;2024-02-16T01:35:40;22.20;61.10
67817;DHT22;54614;47.576;7.524;2024-02-16T01:38:06;22.20;61.10
67817;DHT22;54614;47.576;7.524;2024-02-16T01:40:32;22.20;61.10
67817;DHT22;54614;47.576;7.524;2024-02-16T01:42:58;22.20;61.10
67817;DHT22;54614;47.576;7.524;2024-02-16T01:45:24;22.20;61.10
67817;DHT22;54614;47.576;7.524;2024-02-16T01:47:51;22.20;61.10
67817;DHT22;54614;47.576;7.524;2024-02-16T01:50:19;22.20;61.10
67817;DHT22;54614;47.576;7.524;2024-02-16T01:52:46;22.20;61.10
67817;DHT22;54614;47.576;7.524;2024-02-16T01:55:13;22.20;61.10
67817;DHT22;54614;47.576;7.524;2024-02-16T01:57:43;22.20;61.00
67817;DHT22;54614;47.576;7.524;2024-02-16T02:00:10;22.20;61.00
67817;DHT22;54614;47.576;7.524;2024-02-16T02:02:37;22.20;61.10
67817;DHT22;54614;47.576;7.524;2024-02-16T02:05:03;22.20;61.00
67817;DHT22;54614;47.576;7.524;2024-02-16T02:07:30;22.20;61.10
67817;DHT22;54614;47.576;7.524;2024-02-16T02:09:56;22.20;61.10
67817;DHT22;54614;47.576;7.524;2024-02-16T02:12:22;22.20;61.00
67817;DHT22;54614;47.576;7.524;2024-02-16T02:14:49;22.20;61.00
67817;DHT22;54614;47.576;7.524;2024-02-16T02:17:16;22.20;61.00
67817;DHT22;54614;47.576;7.524;2024-02-16T02:19:43;22.20;61.00
67817;DHT22;54614;47.576;7.524;2024-02-16T02:22:21;22.20;61.00
67817;DHT22;54614;47.576;7.524;2024-02-16T02:24:47;22.20;61.00
67817;DHT22;54614;47.576;7.524;2024-02-16T02:27:15;22.20;61.00
67817;DHT22;54614;47.576;7.524;2024-02-16T02:29:41;22.20;61.00
67817;DHT22;54614;47.576;7.524;2024-02-16T02:32:08;22.20;61.00
67817;DHT22;54614;47.576;7.524;2024-02-16T02:34:35;22.10;60.90
67817;DHT22;54614;47.576;7.524;2024-02-16T02:37:04;22.20;61.00
67817;DHT22;54614;47.576;7.524;2024-02-16T02:39:31;22.20;61.00
67817;DHT22;54614;47.576;7.524;2024-02-16T02:41:57;22.20;61.00
67817;DHT22;54614;47.576;7.524;2024-02-16T02:44:24;22.20;61.00
67817;DHT22;54614;47.576;7.524;2024-02-16T02:46:51;22.20;61.00
67817;DHT22;54614;47.576;7.524;2024-02-16T02:49:17;22.20;61.00
67817;DHT22;54614;47.576;7.524;2024-02-16T02:51:43;22.20;61.00
67817;DHT22;54614;47.576;7.524;2024-02-16T02:54:09;22.10;60.90
67817;DHT22;54614;47.576;7.524;2024-02-16T02:56:35;22.10;60.90
67817;DHT22;54614;47.576;7.524;2024-02-16T02:59:01;22.10;60.90
67817;DHT22;54614;47.576;7.524;2024-02-16T03:01:27;22.10;60.90
67817;DHT22;54614;47.576;7.524;2024-02-16T03:03:53;22.10;60.90
67817;DHT22;54614;47.576;7.524;2024-02-16T03:06:19;22.20;60.90
67817;DHT22;54614;47.576;7.524;2024-02-16T03:08:46;22.20;60.90
67817;DHT22;54614;47.576;7.524;2024-02-16T03:11:12;22.20;60.90
67817;DHT22;54614;47.576;7.524;2024-02-16T03:13:38;22.20;60.90
67817;DHT22;54614;47.576;7.524;2024-02-16T03:16:04;22.10;60.80
67817;DHT22;54614;47.576;7.524;2024-02-16T03:18:33;22.10;60.90
67817;DHT22;54614;47.576;7.524;2024-02-16T03:21:00;22.20;60.90
67817;DHT22;54614;47.576;7.524;2024-02-16T03:23:26;22.10;60.90
67817;DHT22;54614;47.576;7.524;2024-02-16T03:25:53;22.10;60.90
67817;DHT22;54614;47.576;7.524;2024-02-16T03:28:18;22.10;60.80
67817;DHT22;54614;47.576;7.524;2024-02-16T03:30:46;22.10;60.80
67817;DHT22;54614;47.576;7.524;2024-02-16T03:33:12;22.10;60.80
67817;DHT22;54614;47.576;7.524;2024-02-16T03:35:41;22.10;60.90
67817;DHT22;54614;47.576;7.524;2024-02-16T03:38:07;22.10;60.90
67817;DHT22;54614;47.576;7.524;2024-02-16T03:40:33;22.10;60.90
67817;DHT22;54614;47.576;7.524;2024-02-16T03:42:59;22.10;60.90
67817;DHT22;54614;47.576;7.524;2024-02-16T03:45:25;22.10;60.80
67817;DHT22;54614;47.576;7.524;2024-02-16T03:47:53;22.10;60.80
67817;DHT22;54614;47.576;7.524;2024-02-16T03:50:19;22.10;60.90
67817;DHT22;54614;47.576;7.524;2024-02-16T03:52:46;22.10;60.90
67817;DHT22;54614;47.576;7.524;2024-02-16T03:55:12;22.10;60.80
67817;DHT22;54614;47.576;7.524;2024-02-16T03:57:39;22.10;60.90
67817;DHT22;54614;47.576;7.524;2024-02-16T04:00:05;22.10;60.80
67817;DHT22;54614;47.576;7.524;2024-02-16T04:02:32;22.10;60.90
67817;DHT22;54614;47.576;7.524;2024-02-16T04:04:58;22.10;60.80
67817;DHT22;54614;47.576;7.524;2024-02-16T04:07:23;22.10;60.90
67817;DHT22;54614;47.576;7.524;2024-02-16T04:09:49;22.10;60.90
67817;DHT22;54614;47.576;7.524;2024-02-16T04:12:15;22.10;60.90
67817;DHT22;54614;47.576;7.524;2024-02-16T04:14:41;22.10;60.90
67817;DHT22;54614;47.576;7.524;2024-02-16T04:17:09;22.10;60.90
67817;DHT22;54614;47.576;7.524;2024-02-16T04:19:36;22.10;60.80
67817;DHT22;54614;47.576;7.524;2024-02-16T04:22:03;22.10;60.90
67817;DHT22;54614;47.576;7.524;2024-02-16T04:24:29;22.10;60.80
67817;DHT22;54614;47.576;7.524;2024-02-16T04:26:55;22.10;60.90
67817;DHT22;54614;47.576;7.524;2024-02-16T04:29:21;22.10;60.90
67817;DHT22;54614;47.576;7.524;2024-02-16T04:31:46;22.10;60.90
67817;DHT22;54614;47.576;7.524;2024-02-16T04:34:13;22.10;60.80
67817;DHT22;54614;47.576;7.524;2024-02-16T04:36:39;22.10;60.90
67817;DHT22;54614;47.576;7.524;2024-02-16T04:39:06;22.10;60.90
67817;DHT22;54614;47.576;7.524;2024-02-16T04:41:32;22.10;60.90
67817;DHT22;54614;47.576;7.524;2024-02-16T04:43:57;22.10;60.90
67817;DHT22;54614;47.576;7.524;2024-02-16T04:46:23;22.10;60.90
67817;DHT22;54614;47.576;7.524;2024-02-16T04:48:49;22.10;60.90
67817;DHT22;54614;47.576;7.524;2024-02-16T04:51:15;22.10;60.90
67817;DHT22;54614;47.576;7.524;2024-02-16T04:53:41;22.00;60.90
67817;DHT22;54614;47.576;7.524;2024-02-16T04:56:06;22.10;61.00
67817;DHT22;54614;47.576;7.524;2024-02-16T04:58:32;22.00;60.90
67817;DHT22;54614;47.576;7.524;2024-02-16T05:00:59;22.10;61.00
67817;DHT22;54614;47.576;7.524;2024-02-16T05:03:25;22.10;61.10
67817;DHT22;54614;47.576;7.524;2024-02-16T05:05:51;22.00;60.60
67817;DHT22;54614;47.576;7.524;2024-02-16T05:08:17;22.00;61.00
67817;DHT22;54614;47.576;7.524;2024-02-16T05:10:43;22.00;59.30
67817;DHT22;54614;47.576;7.524;2024-02-16T05:13:09;22.00;59.20
67817;DHT22;54614;47.576;7.524;2024-02-16T05:15:36;22.00;59.00
67817;DHT22;54614;47.576;7.524;2024-02-16T05:18:02;22.00;58.80
67817;DHT22;54614;47.576;7.524;2024-02-16T05:20:28;22.00;58.80
67817;DHT22;54614;47.576;7.524;2024-02-16T05:22:54;22.00;58.50
67817;DHT22;54614;47.576;7.524;2024-02-16T05:25:20;22.00;58.40
67817;DHT22;54614;47.576;7.524;2024-02-16T05:27:46;22.00;58.30
67817;DHT22;54614;47.576;7.524;2024-02-16T05:30:15;22.00;58.20
67817;DHT22;54614;47.576;7.524;2024-02-16T05:32:41;22.00;58.00
67817;DHT22;54614;47.576;7.524;2024-02-16T05:35:08;22.00;58.00
67817;DHT22;54614;47.576;7.524;2024-02-16T05:37:42;22.00;58.00
67817;DHT22;54614;47.576;7.524;2024-02-16T05:40:10;22.00;57.90
67817;DHT22;54614;47.576;7.524;2024-02-16T05:42:54;22.00;58.40
67817;DHT22;54614;47.576;7.524;2024-02-16T05:45:24;22.00;57.60
67817;DHT22;54614;47.576;7.524;2024-02-16T05:47:52;22.00;57.60
67817;DHT22;54614;47.576;7.524;2024-02-16T05:50:20;22.00;57.60
67817;DHT22;54614;47.576;7.524;2024-02-16T05:52:46;22.00;59.80
67817;DHT22;54614;47.576;7.524;2024-02-16T05:55:13;22.00;59.50
67817;DHT22;54614;47.576;7.524;2024-02-16T05:57:39;22.00;59.60
67817;DHT22;54614;47.576;7.524;2024-02-16T06:00:06;22.00;59.60
67817;DHT22;54614;47.576;7.524;2024-02-16T06:02:34;22.00;58.80
67817;DHT22;54614;47.576;7.524;2024-02-16T06:05:01;22.00;58.30
67817;DHT22;54614;47.576;7.524;2024-02-16T06:07:28;22.00;58.20
67817;DHT22;54614;47.576;7.524;2024-02-16T06:09:56;22.00;58.10
67817;DHT22;54614;47.576;7.524;2024-02-16T06:12:22;22.00;58.10
67817;DHT22;54614;47.576;7.524;2024-02-16T06:14:49;22.00;58.20
67817;DHT22;54614;47.576;7.524;2024-02-16T06:17:15;22.00;58.20
67817;DHT22;54614;47.576;7.524;2024-02-16T06:19:42;22.00;58.60
67817;DHT22;54614;47.576;7.524;2024-02-16T06:22:08;22.00;58.20
67817;DHT22;54614;47.576;7.524;2024-02-16T06:24:35;22.00;58.40
67817;DHT22;54614;47.576;7.524;2024-02-16T06:27:01;22.00;66.00
67817;DHT22;54614;47.576;7.524;2024-02-16T06:29:28;22.20;67.60
67817;DHT22;54614;47.576;7.524;2024-02-16T06:31:56;22.30;65.80
67817;DHT22;54614;47.576;7.524;2024-02-16T06:34:22;22.40;64.50
67817;DHT22;54614;47.576;7.524;2024-02-16T06:36:48;22.40;64.10
67817;DHT22;54614;47.576;7.524;2024-02-16T06:39:15;22.40;63.20
67817;DHT22;54614;47.576;7.524;2024-02-16T06:41:46;22.40;63.00
67817;DHT22;54614;47.576;7.524;2024-02-16T06:44:13;22.40;62.40
67817;DHT22;54614;47.576;7.524;2024-02-16T06:46:40;22.30;62.80
67817;DHT22;54614;47.576;7.524;2024-02-16T06:49:09;22.40;62.60
67817;DHT22;54614;47.576;7.524;2024-02-16T06:51:36;22.40;62.50
67817;DHT22;54614;47.576;7.524;2024-02-16T06:54:03;22.30;61.90
67817;DHT22;54614;47.576;7.524;2024-02-16T06:56:29;22.30;61.70
67817;DHT22;54614;47.576;7.524;2024-02-16T06:58:57;22.20;61.60
67817;DHT22;54614;47.576;7.524;2024-02-16T07:01:23;22.20;61.50
67817;DHT22;54614;47.576;7.524;2024-02-16T07:03:48;22.20;61.40
67817;DHT22;54614;47.576;7.524;2024-02-16T07:06:14;22.20;61.40
67817;DHT22;54614;47.576;7.524;2024-02-16T07:08:40;22.20;61.30
67817;DHT22;54614;47.576;7.524;2024-02-16T07:11:06;22.20;61.20
67817;DHT22;54614;47.576;7.524;2024-02-16T07:13:37;22.20;61.10
67817;DHT22;54614;47.576;7.524;2024-02-16T07:16:04;22.20;61.10
67817;DHT22;54614;47.576;7.524;2024-02-16T07:18:33;22.10;61.00
67817;DHT22;54614;47.576;7.524;2024-02-16T07:20:59;22.20;61.00
67817;DHT22;54614;47.576;7.524;2024-02-16T07:23:25;22.20;61.00
67817;DHT22;54614;47.576;7.524;2024-02-16T07:25:51;22.20;61.00
67817;DHT22;54614;47.576;7.524;2024-02-16T07:28:20;22.20;61.00
67817;DHT22;54614;47.576;7.524;2024-02-16T07:30:47;22.10;60.90
67817;DHT22;54614;47.576;7.524;2024-02-16T07:33:12;22.10;60.90
67817;DHT22;54614;47.576;7.524;2024-02-16T07:35:38;22.10;60.90
67817;DHT22;54614;47.576;7.524;2024-02-16T07:38:04;22.10;60.80
67817;DHT22;54614;47.576;7.524;2024-02-16T07:40:31;22.10;60.80
67817;DHT22;54614;47.576;7.524;2024-02-16T07:42:57;22.10;60.80
67817;DHT22;54614;47.576;7.524;2024-02-16T07:45:23;22.10;60.80
67817;DHT22;54614;47.576;7.524;2024-02-16T07:47:49;22.10;60.80
67817;DHT22;54614;47.576;7.524;2024-02-16T07:50:19;22.10;60.70
67817;DHT22;54614;47.576;7.524;2024-02-16T07:52:46;22.10;60.70
67817;DHT22;54614;47.576;7.524;2024-02-16T07:55:12;22.10;60.70
67817;DHT22;54614;47.576;7.524;2024-02-16T07:57:38;22.10;60.70
67817;DHT22;54614;47.576;7.524;2024-02-16T08:00:05;22.10;60.60
67817;DHT22;54614;47.576;7.524;2024-02-16T08:02:32;22.10;61.30
67817;DHT22;54614;47.576;7.524;2024-02-16T08:04:58;22.10;60.50
67817;DHT22;54614;47.576;7.524;2024-02-16T08:07:24;22.10;60.50
67817;DHT22;54614;47.576;7.524;2024-02-16T08:09:50;22.10;60.50
67817;DHT22;54614;47.576;7.524;2024-02-16T08:12:16;22.10;60.50
67817;DHT22;54614;47.576;7.524;2024-02-16T08:14:42;22.10;60.50
67817;DHT22;54614;47.576;7.524;2024-02-16T08:17:09;22.10;60.50
67817;DHT22;54614;47.576;7.524;2024-02-16T08:19:36;22.20;60.60
67817;DHT22;54614;47.576;7.524;2024-02-16T08:22:04;22.10;60.50
67817;DHT22;54614;47.576;7.524;2024-02-16T08:24:32;22.10;60.50
67817;DHT22;54614;47.576;7.524;2024-02-16T08:26:59;22.10;60.50
67817;DHT22;54614;47.576;7.524;2024-02-16T08:29:25;22.10;60.50
67817;DHT22;54614;47.576;7.524;2024-02-16T08:31:54;22.20;60.50
67817;DHT22;54614;47.576;7.524;2024-02-16T08:34:20;22.10;60.50
67817;DHT22;54614;47.576;7.524;2024-02-16T08:36:47;22.10;60.50
67817;DHT22;54614;47.576;7.524;2024-02-16T08:39:16;22.10;60.40
67817;DHT22;54614;47.576;7.524;2024-02-16T08:41:42;22.10;60.50
67817;DHT22;54614;47.576;7.524;2024-02-16T08:44:13;22.10;60.40
67817;DHT22;54614;47.576;7.524;2024-02-16T08:46:40;22.20;60.50
67817;DHT22;54614;47.576;7.524;2024-02-16T08:49:06;22.20;60.50
67817;DHT22;54614;47.576;7.524;2024-02-16T08:51:32;22.20;60.50
67817;DHT22;54614;47.576;7.524;2024-02-16T08:53:59;22.10;60.50
67817;DHT22;54614;47.576;7.524;2024-02-16T08:56:25;22.10;60.50
67817;DHT22;54614;47.576;7.524;2024-02-16T08:58:53;22.20;60.50
67817;DHT22;54614;47.576;7.524;2024-02-16T09:01:30;22.10;60.50
67817;DHT22;54614;47.576;7.524;2024-02-16T09:03:59;22.20;60.50
67817;DHT22;54614;47.576;7.524;2024-02-16T09:06:26;22.10;60.40
67817;DHT22;54614;47.576;7.524;2024-02-16T09:08:53;22.10;60.40
67817;DHT22;54614;47.576;7.524;2024-02-16T09:11:19;22.10;60.40
67817;DHT22;54614;47.576;7.524;2024-02-16T09:13:45;22.10;60.40
67817;DHT22;54614;47.576;7.524;2024-02-16T09:16:11;22.10;60.40
67817;DHT22;54614;47.576;7.524;2024-02-16T09:18:37;22.10;60.40
67817;DHT22;54614;47.576;7.524;2024-02-16T09:21:04;22.10;60.40
67817;DHT22;54614;47.576;7.524;2024-02-16T09:23:32;22.10;60.40
67817;DHT22;54614;47.576;7.524;2024-02-16T09:25:58;22.10;60.40
67817;DHT22;54614;47.576;7.524;2024-02-16T09:28:25;22.10;60.30
67817;DHT22;54614;47.576;7.524;2024-02-16T09:30:51;22.10;60.30
67817;DHT22;54614;47.576;7.524;2024-02-16T09:33:17;22.10;60.40
67817;DHT22;54614;47.576;7.524;2024-02-16T09:35:43;22.10;60.30
67817;DHT22;54614;47.576;7.524;2024-02-16T09:38:09;22.10;60.30
67817;DHT22;54614;47.576;7.524;2024-02-16T09:40:37;22.10;60.40
67817;DHT22;54614;47.576;7.524;2024-02-16T09:43:04;22.10;60.30
67817;DHT22;54614;47.576;7.524;2024-02-16T09:45:30;22.10;60.30
67817;DHT22;54614;47.576;7.524;2024-02-16T09:47:58;22.10;60.30
67817;DHT22;54614;47.576;7.524;2024-02-16T09:50:25;22.10;60.40
67817;DHT22;54614;47.576;7.524;2024-02-16T09:52:55;22.10;60.40
67817;DHT22;54614;47.576;7.524;2024-02-16T09:55:22;22.10;60.40
67817;DHT22;54614;47.576;7.524;2024-02-16T09:58:01;22.10;60.40
67817;DHT22;54614;47.576;7.524;2024-02-16T10:00:27;22.10;60.40
67817;DHT22;54614;47.576;7.524;2024-02-16T10:02:53;22.10;60.40
67817;DHT22;54614;47.576;7.524;2024-02-16T10:05:20;22.10;60.40
67817;DHT22;54614;47.576;7.524;2024-02-16T10:07:46;22.10;60.30
67817;DHT22;54614;47.576;7.524;2024-02-16T10:10:23;22.10;60.40
67817;DHT22;54614;47.576;7.524;2024-02-16T10:12:50;22.10;60.30
67817;DHT22;54614;47.576;7.524;2024-02-16T10:15:26;22.10;60.40
67817;DHT22;54614;47.576;7.524;2024-02-16T10:18:02;22.10;60.30
67817;DHT22;54614;47.576;7.524;2024-02-16T10:20:30;22.10;60.40
67817;DHT22;54614;47.576;7.524;2024-02-16T10:23:10;22.10;60.30
67817;DHT22;54614;47.576;7.524;2024-02-16T10:25:38;22.10;60.30
67817;DHT22;54614;47.576;7.524;2024-02-16T10:28:11;22.10;60.30
67817;DHT22;54614;47.576;7.524;2024-02-16T10:30:41;22.10;60.40
67817;DHT22;54614;47.576;7.524;2024-02-16T10:33:11;22.10;60.40
67817;DHT22;54614;47.576;7.524;2024-02-16T10:35:41;22.10;60.30
67817;DHT22;54614;47.576;7.524;2024-02-16T10:38:08;22.10;60.40
67817;DHT22;54614;47.576;7.524;2024-02-16T10:40:40;22.10;60.40
67817;DHT22;54614;47.576;7.524;2024-02-16T10:43:08;22.10;60.40
67817;DHT22;54614;47.576;7.524;2024-02-16T10:45:37;22.10;60.30
67817;DHT22;54614;47.576;7.524;2024-02-16T10:48:05;22.10;60.40
67817;DHT22;54614;47.576;7.524;2024-02-16T10:50:33;22.10;60.40
67817;DHT22;54614;47.576;7.524;2024-02-16T10:56:02;22.10;60.40
67817;DHT22;54614;47.576;7.524;2024-02-16T10:58:28;22.10;60.30
67817;DHT22;54614;47.576;7.524;2024-02-16T11:00:57;22.00;60.30
67817;DHT22;54614;47.576;7.524;2024-02-16T11:03:27;22.10;59.90
67817;DHT22;54614;47.576;7.524;2024-02-16T11:05:54;22.10;59.60
67817;DHT22;54614;47.576;7.524;2024-02-16T11:08:21;22.00;59.40
67817;DHT22;54614;47.576;7.524;2024-02-16T11:13:26;22.00;59.40
67817;DHT22;54614;47.576;7.524;2024-02-16T11:16:07;22.10;59.30
67817;DHT22;54614;47.576;7.524;2024-02-16T11:18:38;22.00;59.20
67817;DHT22;54614;47.576;7.524;2024-02-16T11:21:06;22.10;59.20
67817;DHT22;54614;47.576;7.524;2024-02-16T11:23:35;22.00;59.10
67817;DHT22;54614;47.576;7.524;2024-02-16T11:26:05;22.00;59.50
67817;DHT22;54614;47.576;7.524;2024-02-16T11:28:41;22.00;59.60
67817;DHT22;54614;47.576;7.524;2024-02-16T11:31:08;22.00;59.80
67817;DHT22;54614;47.576;7.524;2024-02-16T11:33:34;22.00;59.90
67817;DHT22;54614;47.576;7.524;2024-02-16T11:36:04;22.00;59.90
67817;DHT22;54614;47.576;7.524;2024-02-16T11:38:33;22.00;60.00
67817;DHT22;54614;47.576;7.524;2024-02-16T11:41:02;22.00;60.00
67817;DHT22;54614;47.576;7.524;2024-02-16T11:43:30;22.00;60.00
67817;DHT22;54614;47.576;7.524;2024-02-16T11:45:56;22.00;60.10
67817;DHT22;54614;47.576;7.524;2024-02-16T11:48:24;22.00;61.40
67817;DHT22;54614;47.576;7.524;2024-02-16T11:51:04;22.00;61.50
67817;DHT22;54614;47.576;7.524;2024-02-16T11:53:31;22.00;62.00
67817;DHT22;54614;47.576;7.524;2024-02-16T11:55:57;22.00;61.60
67817;DHT22;54614;47.576;7.524;2024-02-16T11:58:24;22.00;61.30
67817;DHT22;54614;47.576;7.524;2024-02-16T12:00:52;22.10;61.00
67817;DHT22;54614;47.576;7.524;2024-02-16T12:03:19;22.10;61.30
67817;DHT22;54614;47.576;7.524;2024-02-16T12:05:54;22.10;61.20
67817;DHT22;54614;47.576;7.524;2024-02-16T12:08:20;22.10;60.70
67817;DHT22;54614;47.576;7.524;2024-02-16T12:10:51;22.10;60.60
67817;DHT22;54614;47.576;7.524;2024-02-16T12:13:18;22.20;60.60
67817;DHT22;54614;47.576;7.524;2024-02-16T12:15:45;22.20;60.60
67817;DHT22;54614;47.576;7.524;2024-02-16T12:18:22;22.20;60.60
67817;DHT22;54614;47.576;7.524;2024-02-16T12:21:04;22.20;60.60
67817;DHT22;54614;47.576;7.524;2024-02-16T12:23:32;22.20;60.60
67817;DHT22;54614;47.576;7.524;2024-02-16T12:26:00;22.20;60.60
67817;DHT22;54614;47.576;7.524;2024-02-16T12:28:28;22.20;60.50
67817;DHT22;54614;47.576;7.524;2024-02-16T12:30:57;22.30;60.50
67817;DHT22;54614;47.576;7.524;2024-02-16T12:33:24;22.30;60.50
67817;DHT22;54614;47.576;7.524;2024-02-16T12:35:50;22.30;60.50
67817;DHT22;54614;47.576;7.524;2024-02-16T12:38:17;22.30;60.60
67817;DHT22;54614;47.576;7.524;2024-02-16T12:40:45;22.30;60.60
67817;DHT22;54614;47.576;7.524;2024-02-16T12:43:12;22.30;60.50
67817;DHT22;54614;47.576;7.524;2024-02-16T12:45:39;22.30;60.50
67817;DHT22;54614;47.576;7.524;2024-02-16T12:48:06;22.30;60.50
67817;DHT22;54614;47.576;7.524;2024-02-16T12:50:32;22.30;60.40
67817;DHT22;54614;47.576;7.524;2024-02-16T12:52:58;22.40;60.60
67817;DHT22;54614;47.576;7.524;2024-02-16T12:55:25;22.40;60.40
67817;DHT22;54614;47.576;7.524;2024-02-16T12:57:51;22.40;60.50
67817;DHT22;54614;47.576;7.524;2024-02-16T13:00:17;22.40;60.30
67817;DHT22;54614;47.576;7.524;2024-02-16T13:02:44;22.40;60.30
67817;DHT22;54614;47.576;7.524;2024-02-16T13:05:10;22.40;60.40
67817;DHT22;54614;47.576;7.524;2024-02-16T13:07:37;22.40;60.30
67817;DHT22;54614;47.576;7.524;2024-02-16T13:10:10;22.40;60.30
67817;DHT22;54614;47.576;7.524;2024-02-16T13:12:37;22.40;60.50
67817;DHT22;54614;47.576;7.524;2024-02-16T13:15:04;22.40;60.30
67817;DHT22;54614;47.576;7.524;2024-02-16T13:17:32;22.50;60.30
67817;DHT22;54614;47.576;7.524;2024-02-16T13:19:58;22.50;60.50
67817;DHT22;54614;47.576;7.524;2024-02-16T13:22:38;22.50;60.30
67817;DHT22;54614;47.576;7.524;2024-02-16T13:25:05;22.50;60.30
67817;DHT22;54614;47.576;7.524;2024-02-16T13:27:34;22.50;60.30
67817;DHT22;54614;47.576;7.524;2024-02-16T13:30:00;22.50;60.10
67817;DHT22;54614;47.576;7.524;2024-02-16T13:32:26;22.50;60.10
67817;DHT22;54614;47.576;7.524;2024-02-16T13:34:52;22.60;60.20
67817;DHT22;54614;47.576;7.524;2024-02-16T13:37:18;22.60;60.30
67817;DHT22;54614;47.576;7.524;2024-02-16T13:39:44;22.50;60.20
67817;DHT22;54614;47.576;7.524;2024-02-16T13:42:11;22.60;60.30
67817;DHT22;54614;47.576;7.524;2024-02-16T13:44:38;22.60;60.20
67817;DHT22;54614;47.576;7.524;2024-02-16T13:47:05;22.60;60.10
67817;DHT22;54614;47.576;7.524;2024-02-16T13:49:30;22.60;60.20
67817;DHT22;54614;47.576;7.524;2024-02-16T13:51:56;22.60;60.30
67817;DHT22;54614;47.576;7.524;2024-02-16T13:54:25;22.60;60.10
67817;DHT22;54614;47.576;7.524;2024-02-16T13:56:51;22.60;60.20
67817;DHT22;54614;47.576;7.524;2024-02-16T13:59:17;22.60;60.20
67817;DHT22;54614;47.576;7.524;2024-02-16T14:01:43;22.60;60.10
67817;DHT22;54614;47.576;7.524;2024-02-16T14:04:09;22.60;60.00
67817;DHT22;54614;47.576;7.524;2024-02-16T14:06:34;22.60;60.00
67817;DHT22;54614;47.576;7.524;2024-02-16T14:09:03;22.60;60.00
67817;DHT22;54614;47.576;7.524;2024-02-16T14:11:35;22.60;60.00
67817;DHT22;54614;47.576;7.524;2024-02-16T14:14:01;22.60;60.00
67817;DHT22;54614;47.576;7.524;2024-02-16T14:16:27;22.60;60.00
67817;DHT22;54614;47.576;7.524;2024-02-16T14:18:53;22.60;60.00
67817;DHT22;54614;47.576;7.524;2024-02-16T14:21:19;22.60;60.00
67817;DHT22;54614;47.576;7.524;2024-02-16T14:23:44;22.60;60.10
67817;DHT22;54614;47.576;7.524;2024-02-16T14:26:10;22.70;60.00
67817;DHT22;54614;47.576;7.524;2024-02-16T14:28:37;22.70;60.10
67817;DHT22;54614;47.576;7.524;2024-02-16T14:31:02;22.60;60.00
67817;DHT22;54614;47.576;7.524;2024-02-16T14:33:28;22.70;60.00
67817;DHT22;54614;47.576;7.524;2024-02-16T14:35:54;22.60;59.90
67817;DHT22;54614;47.576;7.524;2024-02-16T14:38:20;22.60;59.90
67817;DHT22;54614;47.576;7.524;2024-02-16T14:40:45;22.70;60.00
67817;DHT22;54614;47.576;7.524;2024-02-16T14:43:11;22.70;60.00
67817;DHT22;54614;47.576;7.524;2024-02-16T14:45:37;22.60;60.10
67817;DHT22;54614;47.576;7.524;2024-02-16T14:48:04;22.70;60.30
67817;DHT22;54614;47.576;7.524;2024-02-16T14:50:30;22.60;60.10
67817;DHT22;54614;47.576;7.524;2024-02-16T14:52:56;22.70;60.10
67817;DHT22;54614;47.576;7.524;2024-02-16T14:55:22;22.70;60.00
67817;DHT22;54614;47.576;7.524;2024-02-16T14:57:48;22.70;60.10
67817;DHT22;54614;47.576;7.524;2024-02-16T15:00:14;22.70;60.00
67817;DHT22;54614;47.576;7.524;2024-02-16T15:02:40;22.70;59.90
67817;DHT22;54614;47.576;7.524;2024-02-16T15:05:09;22.70;59.90
67817;DHT22;54614;47.576;7.524;2024-02-16T15:07:35;22.70;59.90
67817;DHT22;54614;47.576;7.524;2024-02-16T15:10:01;22.70;59.90
67817;DHT22;54614;47.576;7.524;2024-02-16T15:12:28;22.70;60.00
67817;DHT22;54614;47.576;7.524;2024-02-16T15:14:54;22.70;59.80
67817;DHT22;54614;47.576;7.524;2024-02-16T15:17:20;22.70;59.90
67817;DHT22;54614;47.576;7.524;2024-02-16T15:19:47;22.80;60.00
67817;DHT22;54614;47.576;7.524;2024-02-16T15:22:13;22.80;59.90
67817;DHT22;54614;47.576;7.524;2024-02-16T15:24:38;22.80;59.90
67817;DHT22;54614;47.576;7.524;2024-02-16T15:27:04;22.80;59.80
67817;DHT22;54614;47.576;7.524;2024-02-16T15:29:31;22.80;59.80
67817;DHT22;54614;47.576;7.524;2024-02-16T15:31:58;22.80;59.80
67817;DHT22;54614;47.576;7.524;2024-02-16T15:34:25;22.80;60.00